sensor_id;sensor_type;location;lat;lon;timestamp;temperature;humidity
24146;DHT22;12308;50.948;4.706;2024-01-11T00:02:16;-2.30;99.90
24146;DHT22;12308;50.948;4.706;2024-01-11T00:04:43;-2.40;99.90
24146;DHT22;12308;50.948;4.706;2024-01-11T00:07:09;-2.50;99.90
24146;DHT22;12308;50.948;4.706;2024-01-11T00:09:42;-2.60;99.90
24146;DHT22;12308;50.948;4.706;2024-01-11T00:12:08;-2.70;99.90
24146;DHT22;12308;50.948;4.706;2024-01-11T00:14:35;-2.80;99.90
24146;DHT22;12308;50.948;4.706;2024-01-11T00:17:01;-2.70;99.90
24146;DHT22;12308;50.948;4.706;2024-01-11T00:19:26;-2.70;99.90
24146;DHT22;12308;50.948;4.706;2024-01-11T00:21:52;-2.80;99.90
24146;DHT22;12308;50.948;4.706;2024-01-11T00:24:18;-2.70;99.90
24146;DHT22;12308;50.948;4.706;2024-01-11T00:26:44;-2.60;99.90
24146;DHT22;12308;50.948;4.706;2024-01-11T00:29:09;-2.70;99.90
24146;DHT22;12308;50.948;4.706;2024-01-11T00:31:35;-2.80;99.90
24146;DHT22;12308;50.948;4.706;2024-01-11T00:34:01;-2.80;99.90
24146;DHT22;12308;50.948;4.706;2024-01-11T00:36:27;-2.80;99.90
24146;DHT22;12308;50.948;4.706;2024-01-11T00:38:54;-2.80;99.90
24146;DHT22;12308;50.948;4.706;2024-01-11T00:41:20;-2.80;99.90
24146;DHT22;12308;50.948;4.706;2024-01-11T00:43:45;-2.90;99.90
24146;DHT22;12308;50.948;4.706;2024-01-11T00:46:11;-2.90;99.90
24146;DHT22;12308;50.948;4.706;2024-01-11T00:48:37;-3.00;99.90
24146;DHT22;12308;50.948;4.706;2024-01-11T00:51:05;-3.00;99.90
24146;DHT22;12308;50.948;4.706;2024-01-11T00:53:31;-3.10;99.90
24146;DHT22;12308;50.948;4.706;2024-01-11T00:56:01;-2.90;99.90
24146;DHT22;12308;50.948;4.706;2024-01-11T00:58:27;-3.00;99.90
24146;DHT22;12308;50.948;4.706;2024-01-11T01:00:53;-3.00;99.90
24146;DHT22;12308;50.948;4.706;2024-01-11T01:03:20;-2.80;99.90
24146;DHT22;12308;50.948;4.706;2024-01-11T01:05:46;-2.60;99.90
24146;DHT22;12308;50.948;4.706;2024-01-11T01:08:13;-2.60;99.90
24146;DHT22;12308;50.948;4.706;2024-01-11T01:10:39;-2.50;99.90
24146;DHT22;12308;50.948;4.706;2024-01-11T01:13:04;-2.50;99.90
24146;DHT22;12308;50.948;4.706;2024-01-11T01:15:30;-2.50;99.90
24146;DHT22;12308;50.948;4.706;2024-01-11T01:17:56;-2.50;99.90
24146;DHT22;12308;50.948;4.706;2024-01-11T01:20:22;-2.60;99.90
24146;DHT22;12308;50.948;4.706;2024-01-11T01:22:48;-2.50;99.90
24146;DHT22;12308;50.948;4.706;2024-01-11T01:25:14;-2.60;99.90
24146;DHT22;12308;50.948;4.706;2024-01-11T01:27:40;-2.70;99.90
24146;DHT22;12308;50.948;4.706;2024-01-11T01:30:06;-2.80;99.90
24146;DHT22;12308;50.948;4.706;2024-01-11T01:32:32;-2.80;99.90
24146;DHT22;12308;50.948;4.706;2024-01-11T01:34:58;-3.00;99.90
24146;DHT22;12308;50.948;4.706;2024-01-11T01:37:24;-3.10;99.90
24146;DHT22;12308;50.948;4.706;2024-01-11T01:39:49;-3.10;99.90
24146;DHT22;12308;50.948;4.706;2024-01-11T01:42:15;-3.20;99.90
24146;DHT22;12308;50.948;4.706;2024-01-11T01:44:41;-3.10;99.90
24146;DHT22;12308;50.948;4.706;2024-01-11T01:47:08;-3.00;99.90
24146;DHT22;12308;50.948;4.706;2024-01-11T01:49:35;-3.00;99.90
24146;DHT22;12308;50.948;4.706;2024-01-11T01:52:01;-2.90;99.90
24146;DHT22;12308;50.948;4.706;2024-01-11T01:54:28;-3.10;99.90
24146;DHT22;12308;50.948;4.706;2024-01-11T01:56:55;-3.00;99.90
24146;DHT22;12308;50.948;4.706;2024-01-11T01:59:22;-3.00;99.90
24146;DHT22;12308;50.948;4.706;2024-01-11T02:01:49;-3.10;99.90
24146;DHT22;12308;50.948;4.706;2024-01-11T02:04:15;-3.20;99.90
24146;DHT22;12308;50.948;4.706;2024-01-11T02:06:41;-3.30;99.90
24146;DHT22;12308;50.948;4.706;2024-01-11T02:09:10;-3.20;99.90
24146;DHT22;12308;50.948;4.706;2024-01-11T02:11:37;-3.30;99.90
24146;DHT22;12308;50.948;4.706;2024-01-11T02:14:04;-3.20;99.90
24146;DHT22;12308;50.948;4.706;2024-01-11T02:16:30;-3.30;99.90
24146;DHT22;12308;50.948;4.706;2024-01-11T02:18:56;-3.30;99.90
24146;DHT22;12308;50.948;4.706;2024-01-11T02:21:22;-3.30;99.90
24146;DHT22;12308;50.948;4.706;2024-01-11T02:24:06;-3.40;99.90
24146;DHT22;12308;50.948;4.706;2024-01-11T02:26:32;-3.50;99.90
24146;DHT22;12308;50.948;4.706;2024-01-11T02:28:58;-3.50;99.90
24146;DHT22;12308;50.948;4.706;2024-01-11T02:31:24;-3.40;99.90
24146;DHT22;12308;50.948;4.706;2024-01-11T02:33:54;-3.20;99.90
24146;DHT22;12308;50.948;4.706;2024-01-11T02:36:21;-3.10;99.90
24146;DHT22;12308;50.948;4.706;2024-01-11T02:38:48;-3.10;99.90
24146;DHT22;12308;50.948;4.706;2024-01-11T02:41:18;-3.00;99.90
24146;DHT22;12308;50.948;4.706;2024-01-11T02:43:50;-3.00;99.90
24146;DHT22;12308;50.948;4.706;2024-01-11T02:46:17;-3.10;99.90
24146;DHT22;12308;50.948;4.706;2024-01-11T02:48:43;-3.10;99.90
24146;DHT22;12308;50.948;4.706;2024-01-11T02:51:09;-3.20;99.90
24146;DHT22;12308;50.948;4.706;2024-01-11T02:53:34;-3.20;99.90
24146;DHT22;12308;50.948;4.706;2024-01-11T02:56:01;-3.30;99.90
24146;DHT22;12308;50.948;4.706;2024-01-11T02:58:27;-3.30;99.90
24146;DHT22;12308;50.948;4.706;2024-01-11T03:00:52;-3.30;99.90
24146;DHT22;12308;50.948;4.706;2024-01-11T03:03:18;-3.20;99.90
24146;DHT22;12308;50.948;4.706;2024-01-11T03:05:44;-3.30;99.90
24146;DHT22;12308;50.948;4.706;2024-01-11T03:08:09;-3.20;99.90
24146;DHT22;12308;50.948;4.706;2024-01-11T03:10:37;-3.30;99.90
24146;DHT22;12308;50.948;4.706;2024-01-11T03:13:05;-3.20;99.90
24146;DHT22;12308;50.948;4.706;2024-01-11T03:15:30;-3.30;99.90
24146;DHT22;12308;50.948;4.706;2024-01-11T03:17:56;-3.30;99.90
24146;DHT22;12308;50.948;4.706;2024-01-11T03:20:21;-3.30;99.90
24146;DHT22;12308;50.948;4.706;2024-01-11T03:22:53;-3.40;99.90
24146;DHT22;12308;50.948;4.706;2024-01-11T03:25:18;-3.50;99.90
24146;DHT22;12308;50.948;4.706;2024-01-11T03:27:44;-3.50;99.90
24146;DHT22;12308;50.948;4.706;2024-01-11T03:30:10;-3.50;99.90
24146;DHT22;12308;50.948;4.706;2024-01-11T03:32:36;-3.50;99.90
24146;DHT22;12308;50.948;4.706;2024-01-11T03:35:02;-3.40;99.90
24146;DHT22;12308;50.948;4.706;2024-01-11T03:37:28;-3.40;99.90
24146;DHT22;12308;50.948;4.706;2024-01-11T03:39:53;-3.40;99.90
24146;DHT22;12308;50.948;4.706;2024-01-11T03:42:19;-3.30;99.90
24146;DHT22;12308;50.948;4.706;2024-01-11T03:44:45;-3.30;99.90
24146;DHT22;12308;50.948;4.706;2024-01-11T03:47:10;-3.40;99.90
24146;DHT22;12308;50.948;4.706;2024-01-11T03:49:36;-3.50;99.90
24146;DHT22;12308;50.948;4.706;2024-01-11T03:52:02;-3.50;99.90
24146;DHT22;12308;50.948;4.706;2024-01-11T03:54:28;-3.40;99.90
24146;DHT22;12308;50.948;4.706;2024-01-11T03:56:53;-3.50;99.90
24146;DHT22;12308;50.948;4.706;2024-01-11T03:59:19;-3.40;99.90
24146;DHT22;12308;50.948;4.706;2024-01-11T04:01:45;-3.40;99.90
24146;DHT22;12308;50.948;4.706;2024-01-11T04:04:10;-3.50;99.90
24146;DHT22;12308;50.948;4.706;2024-01-11T04:06:36;-3.40;99.90
24146;DHT22;12308;50.948;4.706;2024-01-11T04:09:02;-3.50;99.90
24146;DHT22;12308;50.948;4.706;2024-01-11T04:11:28;-3.60;99.90
24146;DHT22;12308;50.948;4.706;2024-01-11T04:13:54;-3.60;99.90
24146;DHT22;12308;50.948;4.706;2024-01-11T04:16:20;-3.70;99.90
24146;DHT22;12308;50.948;4.706;2024-01-11T04:18:46;-3.70;99.90
24146;DHT22;12308;50.948;4.706;2024-01-11T04:21:26;-3.60;99.90
24146;DHT22;12308;50.948;4.706;2024-01-11T04:23:58;-3.60;99.90
24146;DHT22;12308;50.948;4.706;2024-01-11T04:26:24;-3.40;99.90
24146;DHT22;12308;50.948;4.706;2024-01-11T04:28:51;-3.40;99.90
24146;DHT22;12308;50.948;4.706;2024-01-11T04:31:17;-3.40;99.90
24146;DHT22;12308;50.948;4.706;2024-01-11T04:33:43;-3.50;99.90
24146;DHT22;12308;50.948;4.706;2024-01-11T04:36:10;-3.40;99.90
24146;DHT22;12308;50.948;4.706;2024-01-11T04:38:36;-3.40;99.90
24146;DHT22;12308;50.948;4.706;2024-01-11T04:41:14;-3.40;99.90
24146;DHT22;12308;50.948;4.706;2024-01-11T04:43:41;-3.60;99.90
24146;DHT22;12308;50.948;4.706;2024-01-11T04:46:15;-3.50;99.90
24146;DHT22;12308;50.948;4.706;2024-01-11T04:48:41;-3.60;99.90
24146;DHT22;12308;50.948;4.706;2024-01-11T04:51:06;-3.50;99.90
24146;DHT22;12308;50.948;4.706;2024-01-11T04:53:32;-3.60;99.90
24146;DHT22;12308;50.948;4.706;2024-01-11T04:55:58;-3.70;99.90
24146;DHT22;12308;50.948;4.706;2024-01-11T04:58:23;-3.60;99.90
24146;DHT22;12308;50.948;4.706;2024-01-11T05:00:49;-3.60;99.90
24146;DHT22;12308;50.948;4.706;2024-01-11T05:03:15;-3.50;99.90
24146;DHT22;12308;50.948;4.706;2024-01-11T05:05:41;-3.40;99.90
24146;DHT22;12308;50.948;4.706;2024-01-11T05:08:06;-3.40;99.90
24146;DHT22;12308;50.948;4.706;2024-01-11T05:10:32;-3.50;99.90
24146;DHT22;12308;50.948;4.706;2024-01-11T05:12:58;-3.50;99.90
24146;DHT22;12308;50.948;4.706;2024-01-11T05:15:23;-3.50;99.90
24146;DHT22;12308;50.948;4.706;2024-01-11T05:17:49;-3.50;99.90
24146;DHT22;12308;50.948;4.706;2024-01-11T05:20:15;-3.50;99.90
24146;DHT22;12308;50.948;4.706;2024-01-11T05:22:41;-3.40;99.90
24146;DHT22;12308;50.948;4.706;2024-01-11T05:25:07;-3.30;99.90
24146;DHT22;12308;50.948;4.706;2024-01-11T05:27:33;-3.30;99.90
24146;DHT22;12308;50.948;4.706;2024-01-11T05:29:58;-3.50;99.90
24146;DHT22;12308;50.948;4.706;2024-01-11T05:32:24;-3.40;99.90
24146;DHT22;12308;50.948;4.706;2024-01-11T05:34:50;-3.30;99.90
24146;DHT22;12308;50.948;4.706;2024-01-11T05:37:15;-3.20;99.90
24146;DHT22;12308;50.948;4.706;2024-01-11T05:39:41;-3.20;99.90
24146;DHT22;12308;50.948;4.706;2024-01-11T05:42:07;-3.40;99.90
24146;DHT22;12308;50.948;4.706;2024-01-11T05:44:32;-3.50;99.90
24146;DHT22;12308;50.948;4.706;2024-01-11T05:46:58;-3.50;99.90
24146;DHT22;12308;50.948;4.706;2024-01-11T05:49:24;-3.60;99.90
24146;DHT22;12308;50.948;4.706;2024-01-11T05:51:49;-3.60;99.90
24146;DHT22;12308;50.948;4.706;2024-01-11T05:54:15;-3.70;99.90
24146;DHT22;12308;50.948;4.706;2024-01-11T05:56:41;-3.70;99.90
24146;DHT22;12308;50.948;4.706;2024-01-11T05:59:06;-3.80;99.90
24146;DHT22;12308;50.948;4.706;2024-01-11T06:01:32;-3.80;99.90
24146;DHT22;12308;50.948;4.706;2024-01-11T06:03:58;-3.70;99.90
24146;DHT22;12308;50.948;4.706;2024-01-11T06:06:23;-3.50;99.90
24146;DHT22;12308;50.948;4.706;2024-01-11T06:08:49;-3.50;99.90
24146;DHT22;12308;50.948;4.706;2024-01-11T06:11:15;-3.60;99.90
24146;DHT22;12308;50.948;4.706;2024-01-11T06:13:43;-3.50;99.90
24146;DHT22;12308;50.948;4.706;2024-01-11T06:16:09;-3.60;99.90
24146;DHT22;12308;50.948;4.706;2024-01-11T06:18:35;-3.80;99.90
24146;DHT22;12308;50.948;4.706;2024-01-11T06:21:01;-4.00;99.90
24146;DHT22;12308;50.948;4.706;2024-01-11T06:23:26;-4.00;99.90
24146;DHT22;12308;50.948;4.706;2024-01-11T06:25:52;-4.00;99.90
24146;DHT22;12308;50.948;4.706;2024-01-11T06:28:18;-3.90;99.90
24146;DHT22;12308;50.948;4.706;2024-01-11T06:30:43;-3.70;99.90
24146;DHT22;12308;50.948;4.706;2024-01-11T06:33:09;-3.60;99.90
24146;DHT22;12308;50.948;4.706;2024-01-11T06:35:35;-3.70;99.90
24146;DHT22;12308;50.948;4.706;2024-01-11T06:38:00;-3.70;99.90
24146;DHT22;12308;50.948;4.706;2024-01-11T06:40:26;-3.90;99.90
24146;DHT22;12308;50.948;4.706;2024-01-11T06:42:52;-3.90;99.90
24146;DHT22;12308;50.948;4.706;2024-01-11T06:45:18;-4.00;99.90
24146;DHT22;12308;50.948;4.706;2024-01-11T06:47:44;-4.00;99.90
24146;DHT22;12308;50.948;4.706;2024-01-11T06:50:14;-4.00;99.90
24146;DHT22;12308;50.948;4.706;2024-01-11T06:52:40;-3.80;99.90
24146;DHT22;12308;50.948;4.706;2024-01-11T06:55:06;-3.90;99.90
24146;DHT22;12308;50.948;4.706;2024-01-11T06:57:32;-3.90;99.90
24146;DHT22;12308;50.948;4.706;2024-01-11T06:59:58;-4.00;99.90
24146;DHT22;12308;50.948;4.706;2024-01-11T07:02:23;-4.10;99.90
24146;DHT22;12308;50.948;4.706;2024-01-11T07:04:49;-4.10;99.90
24146;DHT22;12308;50.948;4.706;2024-01-11T07:07:15;-4.20;99.90
24146;DHT22;12308;50.948;4.706;2024-01-11T07:09:41;-4.10;99.90
24146;DHT22;12308;50.948;4.706;2024-01-11T07:12:06;-4.10;99.90
24146;DHT22;12308;50.948;4.706;2024-01-11T07:14:33;-4.10;99.90
24146;DHT22;12308;50.948;4.706;2024-01-11T07:16:58;-4.20;99.90
24146;DHT22;12308;50.948;4.706;2024-01-11T07:19:24;-4.30;99.90
24146;DHT22;12308;50.948;4.706;2024-01-11T07:21:50;-4.30;99.90
24146;DHT22;12308;50.948;4.706;2024-01-11T07:24:15;-4.20;99.90
24146;DHT22;12308;50.948;4.706;2024-01-11T07:26:41;-4.10;99.90
24146;DHT22;12308;50.948;4.706;2024-01-11T07:29:07;-4.10;99.90
24146;DHT22;12308;50.948;4.706;2024-01-11T07:31:33;-4.10;99.90
24146;DHT22;12308;50.948;4.706;2024-01-11T07:33:59;-4.10;99.90
24146;DHT22;12308;50.948;4.706;2024-01-11T07:36:25;-4.00;99.90
24146;DHT22;12308;50.948;4.706;2024-01-11T07:38:51;-3.90;99.90
24146;DHT22;12308;50.948;4.706;2024-01-11T07:41:17;-3.90;99.90
24146;DHT22;12308;50.948;4.706;2024-01-11T07:43:42;-4.00;99.90
24146;DHT22;12308;50.948;4.706;2024-01-11T07:46:09;-4.10;99.90
24146;DHT22;12308;50.948;4.706;2024-01-11T07:48:35;-4.30;99.90
24146;DHT22;12308;50.948;4.706;2024-01-11T07:51:00;-4.40;99.90
24146;DHT22;12308;50.948;4.706;2024-01-11T07:53:26;-4.30;99.90
24146;DHT22;12308;50.948;4.706;2024-01-11T07:55:52;-4.30;99.90
24146;DHT22;12308;50.948;4.706;2024-01-11T07:58:18;-4.40;99.90
24146;DHT22;12308;50.948;4.706;2024-01-11T08:00:46;-4.40;99.90
24146;DHT22;12308;50.948;4.706;2024-01-11T08:03:12;-4.40;99.90
24146;DHT22;12308;50.948;4.706;2024-01-11T08:05:38;-4.40;99.90
24146;DHT22;12308;50.948;4.706;2024-01-11T08:08:04;-4.20;99.90
24146;DHT22;12308;50.948;4.706;2024-01-11T08:10:30;-4.10;99.90
24146;DHT22;12308;50.948;4.706;2024-01-11T08:12:56;-3.80;99.90
24146;DHT22;12308;50.948;4.706;2024-01-11T08:15:22;-3.90;99.90
24146;DHT22;12308;50.948;4.706;2024-01-11T08:17:47;-3.80;99.90
24146;DHT22;12308;50.948;4.706;2024-01-11T08:20:14;-3.90;99.90
24146;DHT22;12308;50.948;4.706;2024-01-11T08:22:41;-4.10;99.90
24146;DHT22;12308;50.948;4.706;2024-01-11T08:25:09;-4.10;99.90
24146;DHT22;12308;50.948;4.706;2024-01-11T08:27:35;-3.90;99.90
24146;DHT22;12308;50.948;4.706;2024-01-11T08:30:01;-3.80;99.90
24146;DHT22;12308;50.948;4.706;2024-01-11T08:32:27;-3.80;99.90
24146;DHT22;12308;50.948;4.706;2024-01-11T08:34:53;-3.90;99.90
24146;DHT22;12308;50.948;4.706;2024-01-11T08:37:19;-3.90;99.90
24146;DHT22;12308;50.948;4.706;2024-01-11T08:39:45;-4.00;99.90
24146;DHT22;12308;50.948;4.706;2024-01-11T08:42:12;-4.00;99.90
24146;DHT22;12308;50.948;4.706;2024-01-11T08:44:41;-3.90;99.90
24146;DHT22;12308;50.948;4.706;2024-01-11T08:47:08;-3.40;99.90
24146;DHT22;12308;50.948;4.706;2024-01-11T08:49:38;-3.20;99.90
24146;DHT22;12308;50.948;4.706;2024-01-11T08:52:05;-3.30;99.90
24146;DHT22;12308;50.948;4.706;2024-01-11T08:54:31;-3.10;99.90
24146;DHT22;12308;50.948;4.706;2024-01-11T08:56:58;-3.00;99.90
24146;DHT22;12308;50.948;4.706;2024-01-11T08:59:24;-3.10;99.90
24146;DHT22;12308;50.948;4.706;2024-01-11T09:01:52;-3.00;99.90
24146;DHT22;12308;50.948;4.706;2024-01-11T09:04:18;-3.10;99.90
24146;DHT22;12308;50.948;4.706;2024-01-11T09:06:44;-3.10;99.90
24146;DHT22;12308;50.948;4.706;2024-01-11T09:09:10;-3.00;99.90
24146;DHT22;12308;50.948;4.706;2024-01-11T09:11:37;-3.10;99.90
24146;DHT22;12308;50.948;4.706;2024-01-11T09:14:03;-2.90;99.90
24146;DHT22;12308;50.948;4.706;2024-01-11T09:16:29;-2.80;99.90
24146;DHT22;12308;50.948;4.706;2024-01-11T09:18:54;-2.80;99.90
24146;DHT22;12308;50.948;4.706;2024-01-11T09:21:20;-2.90;99.90
24146;DHT22;12308;50.948;4.706;2024-01-11T09:23:45;-2.70;99.90
24146;DHT22;12308;50.948;4.706;2024-01-11T09:26:12;-2.60;99.90
24146;DHT22;12308;50.948;4.706;2024-01-11T09:28:38;-2.70;99.90
24146;DHT22;12308;50.948;4.706;2024-01-11T09:31:04;-2.60;99.90
24146;DHT22;12308;50.948;4.706;2024-01-11T09:33:30;-2.50;99.90
24146;DHT22;12308;50.948;4.706;2024-01-11T09:35:55;-2.40;99.90
24146;DHT22;12308;50.948;4.706;2024-01-11T09:38:22;-2.40;99.90
24146;DHT22;12308;50.948;4.706;2024-01-11T09:41:03;-2.20;99.90
24146;DHT22;12308;50.948;4.706;2024-01-11T09:43:34;-2.40;99.90
24146;DHT22;12308;50.948;4.706;2024-01-11T09:46:04;-2.50;99.90
24146;DHT22;12308;50.948;4.706;2024-01-11T09:48:33;-2.20;99.90
24146;DHT22;12308;50.948;4.706;2024-01-11T09:51:01;-2.10;99.90
24146;DHT22;12308;50.948;4.706;2024-01-11T09:53:28;-2.10;99.90
24146;DHT22;12308;50.948;4.706;2024-01-11T09:55:55;-2.10;99.90
24146;DHT22;12308;50.948;4.706;2024-01-11T09:58:21;-2.20;99.90
24146;DHT22;12308;50.948;4.706;2024-01-11T10:00:50;-2.20;99.90
24146;DHT22;12308;50.948;4.706;2024-01-11T10:03:18;-2.20;99.90
24146;DHT22;12308;50.948;4.706;2024-01-11T10:05:45;-2.30;99.90
24146;DHT22;12308;50.948;4.706;2024-01-11T10:08:11;-2.20;99.90
24146;DHT22;12308;50.948;4.706;2024-01-11T10:10:37;-1.90;99.90
24146;DHT22;12308;50.948;4.706;2024-01-11T10:13:04;-1.80;99.90
24146;DHT22;12308;50.948;4.706;2024-01-11T10:15:30;-1.80;99.90
24146;DHT22;12308;50.948;4.706;2024-01-11T10:17:56;-1.80;99.90
24146;DHT22;12308;50.948;4.706;2024-01-11T10:20:22;-1.70;99.90
24146;DHT22;12308;50.948;4.706;2024-01-11T10:22:49;-1.60;99.90
24146;DHT22;12308;50.948;4.706;2024-01-11T10:25:16;-1.60;99.90
24146;DHT22;12308;50.948;4.706;2024-01-11T10:27:44;-1.50;99.90
24146;DHT22;12308;50.948;4.706;2024-01-11T10:30:12;-1.40;99.90
24146;DHT22;12308;50.948;4.706;2024-01-11T10:32:46;-1.40;99.90
24146;DHT22;12308;50.948;4.706;2024-01-11T10:35:13;-1.40;99.90
24146;DHT22;12308;50.948;4.706;2024-01-11T10:37:39;-1.40;99.90
24146;DHT22;12308;50.948;4.706;2024-01-11T10:40:07;-1.40;99.90
24146;DHT22;12308;50.948;4.706;2024-01-11T10:42:43;-1.30;99.90
24146;DHT22;12308;50.948;4.706;2024-01-11T10:45:19;-1.10;99.90
24146;DHT22;12308;50.948;4.706;2024-01-11T10:47:54;-1.00;99.90
24146;DHT22;12308;50.948;4.706;2024-01-11T10:50:22;-0.90;99.90
24146;DHT22;12308;50.948;4.706;2024-01-11T10:55:44;-0.90;99.90
24146;DHT22;12308;50.948;4.706;2024-01-11T10:58:11;-0.90;99.90
24146;DHT22;12308;50.948;4.706;2024-01-11T11:00:37;-1.00;99.90
24146;DHT22;12308;50.948;4.706;2024-01-11T11:03:05;-0.90;99.90
24146;DHT22;12308;50.948;4.706;2024-01-11T11:05:34;-0.90;99.90
24146;DHT22;12308;50.948;4.706;2024-01-11T11:08:04;-0.80;99.90
24146;DHT22;12308;50.948;4.706;2024-01-11T11:10:33;-0.80;99.90
24146;DHT22;12308;50.948;4.706;2024-01-11T11:12:59;-0.80;99.90
24146;DHT22;12308;50.948;4.706;2024-01-11T11:15:28;-0.70;99.90
24146;DHT22;12308;50.948;4.706;2024-01-11T11:17:54;-0.70;99.90
24146;DHT22;12308;50.948;4.706;2024-01-11T11:20:20;-0.60;99.90
24146;DHT22;12308;50.948;4.706;2024-01-11T11:23:03;-0.50;99.90
24146;DHT22;12308;50.948;4.706;2024-01-11T11:25:30;-0.50;99.90
24146;DHT22;12308;50.948;4.706;2024-01-11T11:27:56;-0.50;99.90
24146;DHT22;12308;50.948;4.706;2024-01-11T11:30:22;-0.40;99.90
24146;DHT22;12308;50.948;4.706;2024-01-11T11:32:48;-0.40;99.90
24146;DHT22;12308;50.948;4.706;2024-01-11T11:35:14;-0.30;99.90
24146;DHT22;12308;50.948;4.706;2024-01-11T11:37:40;-0.20;99.90
24146;DHT22;12308;50.948;4.706;2024-01-11T11:40:08;-0.10;99.90
24146;DHT22;12308;50.948;4.706;2024-01-11T11:42:36;-0.20;99.90
24146;DHT22;12308;50.948;4.706;2024-01-11T11:45:02;-0.10;99.90
24146;DHT22;12308;50.948;4.706;2024-01-11T11:47:36;0.00;99.90
24146;DHT22;12308;50.948;4.706;2024-01-11T11:50:10;0.00;99.90
24146;DHT22;12308;50.948;4.706;2024-01-11T11:52:39;0.10;99.90
24146;DHT22;12308;50.948;4.706;2024-01-11T11:55:08;0.30;99.90
24146;DHT22;12308;50.948;4.706;2024-01-11T11:57:35;0.30;99.90
24146;DHT22;12308;50.948;4.706;2024-01-11T12:00:01;0.30;99.90
24146;DHT22;12308;50.948;4.706;2024-01-11T12:02:33;0.50;99.90
24146;DHT22;12308;50.948;4.706;2024-01-11T12:05:01;0.50;99.90
24146;DHT22;12308;50.948;4.706;2024-01-11T12:07:29;0.40;99.90
24146;DHT22;12308;50.948;4.706;2024-01-11T12:09:55;0.50;99.90
24146;DHT22;12308;50.948;4.706;2024-01-11T12:12:21;0.40;99.90
24146;DHT22;12308;50.948;4.706;2024-01-11T12:14:49;0.40;99.90
24146;DHT22;12308;50.948;4.706;2024-01-11T12:17:16;0.40;99.90
24146;DHT22;12308;50.948;4.706;2024-01-11T12:19:42;0.40;99.90
24146;DHT22;12308;50.948;4.706;2024-01-11T12:22:08;0.40;99.90
24146;DHT22;12308;50.948;4.706;2024-01-11T12:24:34;0.50;99.90
24146;DHT22;12308;50.948;4.706;2024-01-11T12:27:01;0.50;99.90
24146;DHT22;12308;50.948;4.706;2024-01-11T12:29:29;0.60;99.90
24146;DHT22;12308;50.948;4.706;2024-01-11T12:31:57;0.60;99.90
24146;DHT22;12308;50.948;4.706;2024-01-11T12:34:25;0.70;99.90
24146;DHT22;12308;50.948;4.706;2024-01-11T12:36:52;0.70;99.90
24146;DHT22;12308;50.948;4.706;2024-01-11T12:39:19;0.70;99.90
24146;DHT22;12308;50.948;4.706;2024-01-11T12:41:50;0.70;99.90
24146;DHT22;12308;50.948;4.706;2024-01-11T12:44:20;0.70;99.90
24146;DHT22;12308;50.948;4.706;2024-01-11T12:46:48;0.70;99.90
24146;DHT22;12308;50.948;4.706;2024-01-11T12:49:14;0.80;99.90
24146;DHT22;12308;50.948;4.706;2024-01-11T12:51:40;0.90;99.90
24146;DHT22;12308;50.948;4.706;2024-01-11T12:54:11;1.00;99.90
24146;DHT22;12308;50.948;4.706;2024-01-11T12:56:42;0.90;99.90
24146;DHT22;12308;50.948;4.706;2024-01-11T12:59:10;0.90;99.90
24146;DHT22;12308;50.948;4.706;2024-01-11T13:01:38;0.90;99.90
24146;DHT22;12308;50.948;4.706;2024-01-11T13:04:04;1.00;99.90
24146;DHT22;12308;50.948;4.706;2024-01-11T13:06:31;1.20;99.90
24146;DHT22;12308;50.948;4.706;2024-01-11T13:08:57;1.30;99.90
24146;DHT22;12308;50.948;4.706;2024-01-11T13:11:24;1.30;99.90
24146;DHT22;12308;50.948;4.706;2024-01-11T13:13:53;1.30;99.90
24146;DHT22;12308;50.948;4.706;2024-01-11T13:16:19;1.30;99.90
24146;DHT22;12308;50.948;4.706;2024-01-11T13:18:46;1.30;99.90
24146;DHT22;12308;50.948;4.706;2024-01-11T13:21:12;1.40;99.90
24146;DHT22;12308;50.948;4.706;2024-01-11T13:23:38;1.50;99.90
24146;DHT22;12308;50.948;4.706;2024-01-11T13:26:06;1.50;99.90
24146;DHT22;12308;50.948;4.706;2024-01-11T13:28:32;1.40;99.90
24146;DHT22;12308;50.948;4.706;2024-01-11T13:30:58;1.30;99.90
24146;DHT22;12308;50.948;4.706;2024-01-11T13:33:25;1.30;99.90
24146;DHT22;12308;50.948;4.706;2024-01-11T13:35:51;1.50;99.90
24146;DHT22;12308;50.948;4.706;2024-01-11T13:38:16;1.60;99.90
24146;DHT22;12308;50.948;4.706;2024-01-11T13:40:42;1.60;99.90
24146;DHT22;12308;50.948;4.706;2024-01-11T13:43:09;1.60;99.90
24146;DHT22;12308;50.948;4.706;2024-01-11T13:45:35;1.70;99.90
24146;DHT22;12308;50.948;4.706;2024-01-11T13:48:05;1.70;99.90
24146;DHT22;12308;50.948;4.706;2024-01-11T13:50:31;1.70;99.90
24146;DHT22;12308;50.948;4.706;2024-01-11T13:52:58;1.80;99.90
24146;DHT22;12308;50.948;4.706;2024-01-11T13:55:24;1.80;99.90
24146;DHT22;12308;50.948;4.706;2024-01-11T13:57:50;1.80;99.90
24146;DHT22;12308;50.948;4.706;2024-01-11T14:00:17;1.90;99.90
24146;DHT22;12308;50.948;4.706;2024-01-11T14:02:44;1.90;99.90
24146;DHT22;12308;50.948;4.706;2024-01-11T14:05:11;2.00;99.90
24146;DHT22;12308;50.948;4.706;2024-01-11T14:07:40;2.00;99.90
24146;DHT22;12308;50.948;4.706;2024-01-11T14:10:07;2.00;99.90
24146;DHT22;12308;50.948;4.706;2024-01-11T14:12:34;2.00;99.90
24146;DHT22;12308;50.948;4.706;2024-01-11T14:15:02;2.00;99.90
24146;DHT22;12308;50.948;4.706;2024-01-11T14:17:27;2.00;99.90
24146;DHT22;12308;50.948;4.706;2024-01-11T14:19:53;2.00;99.90
24146;DHT22;12308;50.948;4.706;2024-01-11T14:22:19;2.00;99.90
24146;DHT22;12308;50.948;4.706;2024-01-11T14:24:44;2.10;99.90
24146;DHT22;12308;50.948;4.706;2024-01-11T14:27:10;2.10;99.90
24146;DHT22;12308;50.948;4.706;2024-01-11T14:29:36;2.00;99.90
24146;DHT22;12308;50.948;4.706;2024-01-11T14:32:02;1.90;99.90
24146;DHT22;12308;50.948;4.706;2024-01-11T14:34:28;1.90;99.90
24146;DHT22;12308;50.948;4.706;2024-01-11T14:36:53;1.90;99.90
24146;DHT22;12308;50.948;4.706;2024-01-11T14:39:19;1.90;99.90
24146;DHT22;12308;50.948;4.706;2024-01-11T14:41:45;1.90;99.90
24146;DHT22;12308;50.948;4.706;2024-01-11T14:44:11;1.90;99.90
24146;DHT22;12308;50.948;4.706;2024-01-11T14:46:36;1.90;99.90
24146;DHT22;12308;50.948;4.706;2024-01-11T14:49:02;1.80;99.90
24146;DHT22;12308;50.948;4.706;2024-01-11T14:51:29;1.80;99.90
24146;DHT22;12308;50.948;4.706;2024-01-11T14:53:59;1.80;99.90
24146;DHT22;12308;50.948;4.706;2024-01-11T14:56:25;1.80;99.90
24146;DHT22;12308;50.948;4.706;2024-01-11T14:58:51;1.70;99.90
24146;DHT22;12308;50.948;4.706;2024-01-11T15:01:17;1.70;99.90
24146;DHT22;12308;50.948;4.706;2024-01-11T15:03:43;1.70;99.90
24146;DHT22;12308;50.948;4.706;2024-01-11T15:06:09;1.60;99.90
24146;DHT22;12308;50.948;4.706;2024-01-11T15:08:35;1.60;99.90
24146;DHT22;12308;50.948;4.706;2024-01-11T15:11:01;1.50;99.90
24146;DHT22;12308;50.948;4.706;2024-01-11T15:13:26;1.50;99.90
24146;DHT22;12308;50.948;4.706;2024-01-11T15:15:54;1.50;99.90
24146;DHT22;12308;50.948;4.706;2024-01-11T15:18:19;1.50;99.90
24146;DHT22;12308;50.948;4.706;2024-01-11T15:20:45;1.50;99.90
24146;DHT22;12308;50.948;4.706;2024-01-11T15:23:11;1.60;99.90
24146;DHT22;12308;50.948;4.706;2024-01-11T15:25:37;1.60;99.90
24146;DHT22;12308;50.948;4.706;2024-01-11T15:28:03;1.50;99.90
24146;DHT22;12308;50.948;4.706;2024-01-11T15:30:28;1.40;99.90
24146;DHT22;12308;50.948;4.706;2024-01-11T15:32:54;1.30;99.90
24146;DHT22;12308;50.948;4.706;2024-01-11T15:35:20;1.30;99.90